International TAF

Brunei, China, Hong Kong, Malaysia, Philippines, Taiwan

The availability of aerodrome forecasts from overseas locations is dependent on the regular international exchange of data. Some locations may at times be absent. If this problem persists, please advise webav@bom.gov.au

 back to top

ZSPD 15/09/2019 UTC

TAF ZSPD 152112Z 1600/1624 01004MPS 6000 BKN020 TX28/1606Z
TN23/1620Z

WIDD 15/09/2019 UTC

TAF WIDD 152300Z 1600/1624 14005KT 9000 FEW014
BECMG 1603/1605 15010KT SCT014

WAMM 15/09/2019 UTC

TAF WAMM 152300Z 1600/1706 15008G18KT 9999 FEW023
BECMG 1610/1612 13004KT

WBSB 15/09/2019 UTC

TAF WBSB 152250Z 1600/1706 20003KT 2000 HZ FEW015
BECMG 1603/1605 30008KT FEW016 FEW017CB

WBKK 15/09/2019 UTC

TAF WBKK 152300Z 1600/1700 26005KT 4000 HZ FEW014
BECMG 1610/1612 11005KT

WBGG 15/09/2019 UTC

TAF WBGG 152300Z 1600/1700 VRB03KT 0600 HZ VV///

VHHH 15/09/2019 UTC

TAF VHHH 152300Z 1600/1706 VRB05KT 9999 FEW025 SCT040 TX33/1606Z
TX33/1706Z TN28/1622Z TEMPO 1600/1603 33010KT 4000 SHRA FEW015CB
SCT020 TEMPO 1603/1609 27010KT TEMPO 1609/1618 12010KT TEMPO
1703/1706 10010KT

VMMC 15/09/2019 UTC

TAF VMMC 152300Z 1600/1706 VRB03KT 9999 FEW025
TEMPO 1600/1604 VRB15G25KT 2500 TSRA FEW012CB SCT020
TEMPO 1608/1615 14010KT
TEMPO 1620/1704 VRB15G25KT 2500 TSRA FEW012CB SCT020

ZGSZ 15/09/2019 UTC

TAF ZGSZ 151915Z 1600/1624 20004MPS 6000 SCT030 TX32/1606Z
TN27/1622Z
TEMPO 1600/1604 SHRA SCT015 FEW020CB BKN040

RCTP 15/09/2019 UTC

TAF RCTP 152300Z 1600/1706 06011KT 9999 FEW010 BKN035
TEMPO 1600/1605 13005KT 2800 SHRA SCT008 BKN017 FEW020TCU
BKN030
TEMPO 1605/1609 04017KT
TEMPO 1621/1702 3500 SHRA SCT008 BKN020 BKN035
BECMG 1623/1701 05020KT

RCKH 15/09/2019 UTC

TAF RCKH 152300Z 1600/1706 25005KT 9999 FEW010 BKN035
BECMG 1603/1605 26011KT
TEMPO 1607/1611 33005KT 2800 SHRA SCT006 FEW015CB BKN017
BKN030
BECMG 1611/1613 23005KT
BECMG 1618/1620 08005KT
TEMPO 1620/1701 FEW008 BKN020
BECMG 1700/1702 26008KT

ZGGG 15/09/2019 UTC

TAF ZGGG 152103Z 1600/1624 06003MPS 8000 SCT040 TX34/1607Z
TN27/1622Z
TEMPO 1606/1612 2000 TSRA SCT008 SCT030CB BKN033

ZBAA 15/09/2019 UTC

TAF ZBAA 152130Z 1600/1624 18004MPS 6000 NSC TX26/1607Z TN15/1621Z

ZSSS 15/09/2019 UTC

TAF ZSSS 151910Z 1600/1624 01004MPS 6000 BKN020 TX29/1606Z
TN23/1621Z

ZBTJ 15/09/2019 UTC

TAF ZBTJ 151921Z 1600/1624 07004MPS 5000 HZ NSC TX26/1607Z
TN17/1621Z

ZBYN 15/09/2019 UTC

TAF ZBYN 151901Z 1600/1624 09004MPS 3000 HZ NSC TX26/1607Z
TN13/1621Z
TEMPO 1618/1622 2000 -RA BR

ZSHC 15/09/2019 UTC

TAF ZSHC 151909Z 1600/1624 05003MPS 3000 BR SCT030 TX29/1606Z
TN23/1621Z

ZSOF 16/09/2019 UTC

TAF ZSOF 151902Z 160024 03003MPS 5000 BR BKN040 TX27/06Z TN21/22Z

ZWWW 15/09/2019 UTC

TAF ZWWW 152103Z 1600/1624 18004MPS CAVOK TX25/1609Z TN14/1623Z
BECMG 1602/1603 36004MPS BECMG 1613/1614 27004MPS

ZYTL 15/09/2019 UTC

TAF ZYTL 151904Z 1600/1624 32006G12MPS CAVOK TX26/1606Z TN18/1621Z

RPLL 15/09/2019 UTC

TAF RPLL 152300Z 1600/1706 24007KT 9999 SCT023 BKN090 TX29/1606Z
TN24/1622Z TEMPO 1600/1606 25012KT 6000 -RA SCT020 OVC090
TEMPO 1606/1612 23012KT 5000 TSRA FEW018CB SCT020 OVC080

RPVM 15/09/2019 UTC

TAF RPVM 152300Z 1600/1706 23008KT 9999 FEW020 BKN250
TEMPO 1600/1606 22015KT FEW020 SCT100 OVC250
TEMPO 1606/1612 25012KT FEW018CB SCT020 BKN250

RPMZ 15/09/2019 UTC

TAF RPMZ 152300Z 1600/1624 16004KT 9999 FEW017 SCT090 BKN300
TEMPO 1600/1606 13008KT FEW016CB BKN090

Australian International

The availability of aerodrome forecasts from overseas locations is dependent on the regular international exchange of data. Some locations may at times be absent. If this problem persists, please advise webav@bom.gov.au

 back to top

YMML 15/09/2019 UTC

TAF YMML 152309Z 1600/1706
19016G26KT 9999 SCT040
FM160800 19013KT 9999 SCT040
FM162000 17009KT 9999 FEW025
RMK
T 11 12 10 07 Q 1021 1021 1022 1024

YSSY 15/09/2019 UTC

TAF AMD YSSY 152305Z 1600/1706
31010KT CAVOK
FM160500 19025G38KT 9999 -SHRA SCT020 BKN030
FM161200 17020G30KT 9999 -SHRA SCT015 BKN020
FM170000 15025G35KT 9999 -SHRA SCT015 BKN025
INTER 1609/1612 5000 SHRA BKN010
TEMPO 1612/1706 4000 SHRA BKN008
RMK FM160000 MOD TURB BLW 5000FT TL160500
FM160500 MOD/SEV TURB BLW 5000FT TL161200
FM161200 MOD TURB BLW 5000FT
T 23 25 18 16 Q 1014 1012 1015 1018

YBBN 15/09/2019 UTC

TAF YBBN 152316Z 1600/1706
02014KT CAVOK
FM161200 35008KT CAVOK
FM161800 30005KT 9999 MIFG FEW001
FM162100 32008KT CAVOK
FM170000 01014KT CAVOK
RMK
T 23 25 22 19 Q 1022 1019 1017 1018

YSCB 15/09/2019 UTC

TAF YSCB 152311Z 1600/1624
31012KT CAVOK
FM160300 28014KT 9999 -SHRA NSC
BECMG 1606/1608 10010KT 9999 -RA SCT015 BKN025
FM160900 13010KT 9999 -RA SCT010 BKN020
BECMG 1612/1614 15010KT 9999 -RA SCT015 BKN035
FM161600 15010KT 9999 -SHRA NSC
FM161800 15010KT CAVOK
FM162100 14012KT 9999 BKN025
TEMPO 1607/1614 3000 RA BKN010
RMK FM160000 MOD TURB BLW 5000FT TL160400
FM160900 MOD/SEV TURB BLW 5000FT TL161300
FM161300 MOD TURB BLW 5000FT
T 20 20 17 10 Q 1016 1014 1015 1018

YBCS 15/09/2019 UTC

TAF YBCS 152306Z 1600/1624
12014KT 9999 SCT045
FM161000 16008KT 9999 SCT040
RMK
T 26 27 26 22 Q 1021 1019 1017 1019

YBAS 15/09/2019 UTC

TAF YBAS 152328Z 1600/1624
36010KT CAVOK
FM160500 12006KT CAVOK
FM161400 33005KT CAVOK
FM161700 13012KT CAVOK
RMK FM161500 MOD TURB BLW 3000FT
T 29 31 33 29 Q 1021 1019 1017 1017

YBMA 15/09/2019 UTC

TAF YBMA 152305Z 1600/1612
02013KT CAVOK
RMK
T 26 30 32 26 Q 1021 1019 1017 1018

YPAD 15/09/2019 UTC

TAF YPAD 152318Z 1600/1706
17014KT 9999 SCT030
FM161500 12006KT CAVOK
FM162100 VRB03KT CAVOK
FM170300 24008KT CAVOK
RMK
T 14 15 14 11 Q 1023 1024 1025 1026

YPDN 15/09/2019 UTC

TAF YPDN 152327Z 1600/1706
10014KT CAVOK
FM160500 03012KT CAVOK
FM161400 14003KT CAVOK
RMK
T 27 31 31 27 Q 1017 1014 1012 1012

YPTN 15/09/2019 UTC

TAF YPTN 152341Z 1600/1624
09015G25KT CAVOK
FM160500 10008KT CAVOK
RMK
T 29 33 34 30 Q 1017 1015 1012 1012

YPPH 15/09/2019 UTC

TAF YPPH 152304Z 1600/1706
09020G30KT CAVOK
FM160300 07010KT CAVOK
FM160800 25010KT CAVOK
FM161300 VRB03KT CAVOK
FM161800 01005KT 9999 FEW005
FM162200 01005KT 9999 BKN008
BECMG 1700/1702 30005KT 9999 SCT030
RMK
FM160000 MOD TURB BLW 3000FT TL160200
T 17 23 26 25 Q 1021 1020 1017 1016

YPLM 15/09/2019 UTC

TAF YPLM 152336Z 1600/1624
18007KT CAVOK
FM160300 04007KT CAVOK
FM160900 24008KT CAVOK
FM162000 19007KT 9999 MIFG SCT005
RMK
T 22 30 32 30 Q 1016 1016 1014 1014

YCAR 15/09/2019 UTC

TAF YCAR 152046Z 1522/1611
18012KT CAVOK
FM160400 20018KT CAVOK
RMK
T 21 25 27 26 Q 1016 1017 1017 1015

YPCC 15/09/2019 UTC

TAF YPCC 152312Z 1600/1624
12020KT 9999 SCT030
FM161200 11014KT 9999 SCT025
RMK
T 25 27 27 27 Q 1014 1016 1014 1013

YPPD 15/09/2019 UTC

TAF YPPD 152341Z 1600/1624
VRB03KT CAVOK
FM160400 32012KT CAVOK
FM161200 27007KT CAVOK
FM161500 21005KT 9999 FEW005
RMK
T 24 33 34 29 Q 1016 1015 1013 1014

YBTL 15/09/2019 UTC

TAF YBTL 152354Z 1600/1624
05014KT 9999 FEW040
FM160900 12005KT 9999 FEW030
RMK
T 25 26 25 21 Q 1022 1019 1018 1019

YMHB 15/09/2019 UTC

TAF AMD YMHB 152322Z 1600/1624
25015G25KT 9999 -SHRA SCT030
FM160200 22015G25KT 9999 -SHRA SCT040
FM160800 26010KT 9999 FEW040
FM161200 31010KT CAVOK
RMK FM160000 MOD TURB BLW 5000FT TL160200
T 09 10 10 07 Q 1014 1016 1018 1022

YPXM 15/09/2019 UTC

TAF YPXM 152320Z 1600/1624
13010KT 9999 -SHRA SCT008 BKN010
FM160100 11014KT 9999 -SHRA SCT008 BKN013
FM160900 12012KT 9999 SCT005 BKN010
FM161900 09012KT 9999 SCT008 BKN012
RMK
T 23 25 25 24 Q 1015 1015 1014 1013

New Zealand

The availability of aerodrome forecasts from overseas locations is dependent on the regular international exchange of data. Some locations may at times be absent. If this problem persists, please advise webav@bom.gov.au

 back to top

NZAA 15/09/2019 UTC

TAF NZAA 152303Z 1600/1700 25015KT 9999 SCT030
FM160800 32005KT 9999 SCT015 BKN020
TEMPO 1612/1620 BKN012
BECMG 1621/1623 28015KT

NZWN 15/09/2019 UTC

TAF NZWN 152303Z 1600/1700 36015KT 9999 FEW030
BECMG 1600/1602 36020G30KT
FM160800 36030G50KT 9999 -RA SCT015 BKN025
TEMPO 1612/1620 4000 RADZ BKN014
BECMG 1620/1622 36015G25KT

NZCH 15/09/2019 UTC

TAF NZCH 152302Z 1600/1700 33008KT 9999 FEW050
BECMG 1603/1605 04015KT
BECMG 1611/1613 28018G30KT
BECMG 1618/1620 24012KT

YLHI 15/09/2019 UTC

TAF AMD YLHI 152300Z 1600/1624
30007KT 9999 SCT030
BECMG 1600/1602 33015KT 9999 SCT030
RMK FM161200 MOD TURB BLW 5000FT
T 19 19 18 18 Q 1022 1020 1019 1020

YSNF 15/09/2019 UTC

TAF YSNF 152304Z 1600/1624
17005KT 9999 BKN030
FM160300 10005KT 9999 SCT025
FM161500 36005KT 9999 BKN030
RMK
T 18 18 16 16 Q 1023 1022 1022 1024

Indonesia, Malaysia, Myanmar, Singapore, Thailand, Vietnam

The availability of aerodrome forecasts from overseas locations is dependent on the regular international exchange of data. Some locations may at times be absent. If this problem persists, please advise webav@bom.gov.au

 back to top

WADA

TAF not available.

WAAA 15/09/2019 UTC

TAF WAAA 152300Z 1600/1706 09010KT 9999 FEW019
BECMG 1604/1606 29012KT
BECMG 1610/1612 11008KT 8000

WIII 15/09/2019 UTC

TAF WIII 152300Z 1600/1706 03012KT 9999 FEW020 BECMG 1612/1614
20005KT 5000 HZ

WIHH 15/09/2019 UTC

TAF WIHH 152300Z 1600/1700 14006KT 7000 SCT020
BECMG 1605/1607 03012KT

WIMM 15/09/2019 UTC

TAF WIMM 152300Z 1600/1700 22005KT 5000 HZ SCT018
BECMG 1602/1604 03010KT 9000 NSW
BECMG 1610/1612 VRB05KT 5000 HZ

WIPP 15/09/2019 UTC

TAF WIPP 152300Z 1600/1624 14009KT 5000 FU FEW010
TEMPO 1600/1602 2000
TEMPO 1603/1607 8000
TEMPO 1621/1624 1500

WIKD

TAF not available.

WARR 15/09/2019 UTC

TAF WARR 152300Z 1600/1700 10012KT 9999 FEW020
BECMG 1616/1618 24005KT 5000 HZ

WADD 15/09/2019 UTC

TAF WADD 152300Z 1600/1700 12010KT 9999 SCT016
TEMPO 1620/1700 BKN016

WRRA

TAF not available.

WALL 15/09/2019 UTC

TAF WALL 152300Z 1600/1706 24004KT 9000 SCT020 TEMPO 1601/1604 4000 FU

WSSS 15/09/2019 UTC

TAF WSSS 152300Z 1600/1706 14007KT 9999 FEW015 SCT020

WSAP 15/09/2019 UTC

TAF WSAP 152300Z 1600/1706 14007KT 9999 FEW015 SCT020

WMKK 15/09/2019 UTC

TAF WMKK 152300Z 1600/1706 21005KT 2000 HZ FEW030
PROB30 TEMPO 1600/1604 3000 +RA HZ FEW008 SCT020

WMSA 15/09/2019 UTC

TAF WMSA 152300Z 1600/1700 15005KT 3000 HZ FEW017CB
PROB30 TEMPO 1605/1609 4000 TSRA FEW010 FEW017CB
SCT018 BECMG 1610/1612 6000 NSW FEW026

WMKP 15/09/2019 UTC

TAF WMKP 152300Z 1600/1700 VRB03KT 9000 FEW017CB
PROB30 TEMPO 1600/1604 6000 -TSRA FEW010
FEW017CB BECMG 1604/1606 24006KT
TEMPO 1604/1608 4000 +TSRA FEW010 FEW017CB
BECMG 1610/1612 VRB03KT FEW020

WMKJ 15/09/2019 UTC

TAF WMKJ 152300Z 1600/1700 VRB02KT 5000 BR FEW010
BECMG 1600/1602 16007KT 4000 HZ FEW018

WMKD 15/09/2019 UTC

TAF WMKD 152300Z 1600/1700 VRB02KT 2000 HZ FEW020
BECMG 1606/1607 6000 NSW
TEMPO 1608/1612 VRB07KT 4000 -TSRA FEW017CB

WMKB 15/09/2019 UTC

TAF WMKB 152300Z 1600/1700 06005KT 7000 FEW020
TEMPO 1603/1606 5000 RA FEW017CB SCT022
BECMG 1604/1606 27010KT
BECMG 1613/1615 VRB03KT

VTBD 15/09/2019 UTC

TAF VTBD 152300Z 1600/1706 32005KT 9999 FEW020
BECMG 1606/1608 25005KT
TEMPO 1609/1614 VRB15KT 6000 TSRA FEW018CB SCT030 BKN100

VTBS 15/09/2019 UTC

TAF VTBS 152300Z 1600/1706 34005KT 9999 FEW020 SCT100
BECMG 1606/1608 25005KT
TEMPO 1609/1614 VRB15KT 6000 TSRA FEW018CB SCT030 BKN100

VTBU 15/09/2019 UTC

TAF VTBU 152300Z 1600/1624 26008KT 9999 FEW020 SCT100
TEMPO 1607/1612 VRB12KT 5000 SHRA FEW018 SCT035 BKN100
BECMG 1612/1614 28006KT

VTCC 15/09/2019 UTC

TAF VTCC 152300Z 1600/1706 24005KT 9999 FEW035

VTSP 15/09/2019 UTC

TAF VTSP 152300Z 1600/1706 29012KT 9999 SCT020 BKN100
TEMPO 1606/1612 29015G25KT 5000 RA FEW018 SCT020 BKN100

VTSS 15/09/2019 UTC

TAF VTSS 152300Z 1600/1624 12004KT 8000 FEW020 BKN100
TEMPO 1600/1606 24010G20KT 5000 RA SCT015 BKN100
TEMPO 1606/1612 27015G25KT 3000 TSRA FEW016CB SCT018 BKN100
TEMPO 1612/1618 VRB10G20KT 5000 RA SCT015 BKN100

VVTS 15/09/2019 UTC

TAF VVTS 152300Z 1600/1706 27008KT 9999 SCT015 BKN050
TEMPO 1606/1611 4000 TSRA BKN015 FEW017CB BKN040

VDPP 15/09/2019 UTC

TAF VDPP 152300Z 1600/1618 25010KT 9999 SCT017 SCT040
TEMPO 1606/1611 5000 SHRA SCT015 FEW017CB SCT040

VVNB 15/09/2019 UTC

TAF VVNB 152300Z 1600/1624 05005KT 8000 SCT017 BKN050
PROB30 TEMPO 1604/1608 05015KT 4000 TSRA SCT013 FEW027CB OVC040
TEMPO 1616/1620 4000 TSRA SCT010 FEW027CB BKN040

VYYY 15/09/2019 UTC

TAF VYYY 152300Z 1600/1624 11008KT 7000 BKN015 FEW018CB BKN110
BECMG 1600/1602 4000 BR
TEMPO 1606/1612 12008G18KT 4000 TSRA BKN015 FEW018CB BKN100

South America

The availability of aerodrome forecasts from overseas locations is dependent on the regular international exchange of data. Some locations may at times be absent. If this problem persists, please advise webav@bom.gov.au

 back to top

SAEZ 15/09/2019 UTC

TAF SAEZ 152300Z 1600/1624 16008KT CAVOK TX17/1618Z TN11/1610Z
BECMG 1601/1603 15015KT BKN040 BKN070 PROB30
TEMPO 1602/1605 8000 SHRA BKN040 FEW045TCU BKN050
BECMG 1608/1610 19010KT SCT050
BECMG 1617/1619 25006KT CAVOK

SAVC 16/09/2019 UTC

TAF SAVC 152300Z 1600/1624 27010KT 9999 SCT030
TX15/1618Z TN04/1611Z BECMG 1612/1614 27025G35KT
PROB40 TEMPO 1615/1619 BKN030 OVC090
BECMG 1620/1622 CAVOK

SCIE 16/09/2019 UTC

TAF SCIE 152212Z 1600/1624 24013KT CAVOK TX17/1618Z TN04/1610Z BECMG
1602/1604 15008KT TEMPO 1608/1614 18015G25KT BECMG
1618/1620 18010KT

SACO 15/09/2019 UTC

TAF SACO 152300Z 1600/1624 18020G30KT 8000 SCT040 TX20/1618Z
TN08/1610Z
TEMPO 1604/1607 5000 SHRA BKN035 FEW045TCU
BECMG 1607/1609 18020KT 9999 NSW SCT030
BECMG 1617/1619 18010KT CAVOK
BECMG 1621/1623 VRB03KT

SCIP 16/09/2019 UTC

TAF SCIP 152244Z 1600/1700 08012KT 9999 SCT020 SCT030
TN17/1610Z TX22/1620Z
TEMPO 1609/1615 09017KT 6000 -SHRA SCT015 BKN020
TEMPO 1619/1700 6000 -SHRA SCT015 BKN020

SAZM 15/09/2019 UTC

TAF SAZM 152300Z 1600/1624 27010KT 6000 RA BKN030 OVC045
TX15/1618Z
TN05/1611Z
BECMG 1602/1604 9999 NSW SCT030
BECMG 1607/1610 25015KT CAVOK
BECMG 1618/1620 29010KT

SAME 15/09/2019 UTC

TAF SAME 152300Z 1600/1624 18010KT 9999 SCT040 SCT070 TX15/1620Z
TN04/1611Z PROB30
TEMPO 1602/1606 16010KT 8000 DZRA BKN030 SCT040
BECMG 1613/1615 16005KT 9999 FEW040
BECMG 1618/1620 05005KT CAVOK

SUMU 16/09/2019 UTC

TAF AMD SUMU 160010Z 1600/1624 15003KT 5000 BR BKN005 TX16/1618Z
TN12/1610Z
TEMPO 1600/1606 0800 FG BKN002
BECMG 1608/1612 17008KT CAVOK

SAZN 16/09/2019 UTC

TAF SAZN 152300Z 1600/1624 25015KT 9999 SCT030 TX18/1618Z TN04/1610Z
BECMG 1602/1604 25010KT CAVOK
BECMG 1611/1613 25015G25KT
BECMG 1619/1621 27010KT

SCTE 15/09/2019 UTC

TAF SCTE 152243Z 1600/1700 24003KT 9999 BKN035
TN01/1609Z TX10/1618Z
BECMG 1604/1606 23005KT
TEMPO 1608/1613 VRB02KT 0700 BCFG BKN012
BECMG 1615/1617 19006KT BKN020

SCCI 15/09/2019 UTC

TAF SCCI 152245Z 1600/1700 25015G25KT 9999 FEW035 SCT040
TN01/1603Z TX08/1615Z
TEMPO 1600/1603 25010KT
BECMG 1600/1602 FEW020 BKN028
BECMG 1603/1605 28020G30KT 9000 FEW015 OVC022
TEMPO 1605/1615 5000 -RA FEW010 OVC018
BECMG 1618/1620 9999 SCT020

SAWG 16/09/2019 UTC

TAF SAWG 152300Z 1600/1624 25020G30KT 9999 SCT030 BKN090
TX11/1618Z TN02/1603Z BECMG 1602/1604 30025G35KT -RA BKN025 OVC050
BECMG 1608/1610 23025G35KT
PROB40 TEMPO 1608/1612 25030G45KT 5000 RA OVC020
BECMG 1621/1623 25020KT NSW

SAAR 15/09/2019 UTC

TAF SAAR 152300Z 1600/1624 11010KT 9999 SCT030 TX22/1618Z
TN10/1611Z
BECMG 1601/1604 16015G25KT 9999 BKN045 PROB30
TEMPO 1604/1610 8000 -SHRA SCT020 BKN040
BECMG 1608/1610 18015KT 9999 SCT035

SAZS 15/09/2019 UTC

TAF SAZS 152300Z 1600/1624 29015KT 9999 SCT040 TX08/1618Z
TNM01/1609Z
BECMG 1612/1614 29015G25KT

SCEL 16/09/2019 UTC

TAF SCEL 152211Z 1600/1624 15008KT 9999 BKN040 TX22/1618Z
TN04/1611Z TEMPO 1600/1602 22010KT -SHRA BKN030 BKN050
BECMG 1604/1606 20008KT 6000 BKN015 BKN050 TEMPO 1608/1612
2000 BR BKN005 BECMG 1613/1615 18010KT CAVOK

SAWH 16/09/2019 UTC

TAF SAWH 152300Z 1600/1624 23010KT 9999 -RA BKN020 OVC090
TX03/1618Z TNM03/1609Z PROB40 TEMPO 1601/1605 VRB05KT
BECMG 1608/1610 16010KT 5000 SNRA OVC012
BECMG 1614/1616 VRB05KT 9999 -SHRASN BKN020 OVC050

Guam, Japan, Korea

The availability of aerodrome forecasts from overseas locations is dependent on the regular international exchange of data. Some locations may at times be absent. If this problem persists, please advise webav@bom.gov.au

 back to top

PGUA 15/09/2019 UTC

TAF AMD PGUA 152015Z 1520/1624 29015G25KT 8000 -SHRA BKN010 OVC100
QNH2971INS
TEMPO 1520/1523 29025G35KT 510003
BECMG 1522/1523 24015G25KT 8000 -SHRA BKN020 BKN120
QNH2973INS
TEMPO 1523/1600 29025G35KT 510003
TEMPO 1601/1606 6000 -TSRA BKN010CB
BECMG 1609/1610 22015G25KT 8000 -SHRA BKN020 BKN090
QNH2975INS
TEMPO 1617/1620 6000 -TSRA BKN010CB TX28/1602Z TN22/1610Z

PGUM 15/09/2019 UTC

TAF PGUM 152337Z 1600/1706 25015KT P6SM VCSH FEW020 SCT040 BKN140
FM160800 23010KT P6SM VCSH SCT020 SCT050 BKN140

PGSN 15/09/2019 UTC

TAF PGSN 152337Z 1600/1624 26015KT P6SM VCSH SCT016 SCT050 OVC100
FM161000 23011KT P6SM VCSH FEW016 SCT050 BKN140

PTRO 15/09/2019 UTC

TAF PTRO 152337Z 1600/1624 22014KT P6SM SCT016 BKN120

RJOO

15/09/2019 UTC

TAF RJOO 152310Z 1600/1706 34013KT 9999 FEW030

RJOB 15/09/2019 UTC

TAF RJOB 152307Z 1600/1706 36008KT 9999 FEW020 SCT030

RJGG 15/09/2019 UTC

TAF RJGG 152305Z 1600/1706 31016KT 9999 FEW030 BECMG 1703/1706
20008KT

RJCC 15/09/2019 UTC

TAF RJCC 152306Z 1600/1706 17005KT 9999 FEW015 BKN040 BECMG
1607/1609 34013KT

RJSS 15/09/2019 UTC

TAF RJSS 152305Z 1600/1706 34005KT 8000 -SHRA FEW008 BKN015 BKN030
TEMPO 1600/1607 3000 SHRA BR FEW003 BKN005 BKN015 BECMG
1603/1605 34015KT BECMG 1607/1609 28008KT

RJFK 15/09/2019 UTC

TAF RJFK 152311Z 1600/1706 34005KT 9999 FEW030 BECMG 1600/1602
15004KT BECMG 1605/1607 31005KT BECMG 1700/1703 10005KT

RJAA 15/09/2019 UTC

TAF RJAA 152305Z 1600/1706 02014KT 4000 -SHRA BR FEW005 BKN008 TEMPO
1600/1603 3000 SHRA BR FEW003 BKN005 BECMG 1603/1605
27006KT 9999 NSW FEW020 SCT045 BECMG 1703/1706 07010KT

RJBB 15/09/2019 UTC

TAF RJBB 152306Z 1600/1706 36013KT 9999 FEW030

RJTT 15/09/2019 UTC

TAF RJTT 152305Z 1600/1706 36016KT 8000 -SHRA FEW008 BKN015 TEMPO
1600/1603 3000 SHRA BR FEW005 BKN008 BECMG 1604/1606
08008KT BECMG 1606/1608 16010KT BECMG 1612/1615 04008KT
BECMG 1700/1703 08008KT

RJFF 15/09/2019 UTC

TAF RJFF 152307Z 1600/1706 36012KT 9999 FEW025 SCT035 TEMPO
1604/1608 36016G26KT

RJFT 15/09/2019 UTC

TAF RJFT 152306Z 1600/1706 01009KT 9999 FEW030 SCT045

RJFU 15/09/2019 UTC

TAF RJFU 152309Z 1600/1706 36012KT 9999 FEW025 TEMPO 1605/1612
36018G28KT

ROAH 15/09/2019 UTC

TAF ROAH 152306Z 1600/1706 02018KT 9999 FEW020

RKSS 15/09/2019 UTC

TAF RKSS 152300Z 1600/1706 34005KT CAVOK
TX29/1606Z TN16/1621Z TX28/1706Z
BECMG 1610/1611 08005KT
BECMG 1614/1615 02005KT
BECMG 1620/1621 10005KT
BECMG 1705/1706 34005KT

RKSI 15/09/2019 UTC

TAF RKSI 152300Z 1600/1706 03006KT CAVOK
TX27/1606Z TN18/1621Z TX26/1706Z
BECMG 1605/1606 31010KT
BECMG 1614/1615 06006KT
BECMG 1616/1617 14007KT

RKSM 15/09/2019 UTC

TAF RKSM 152300Z 1600/1706 09006KT 9999 SCT030 BKN200 TX30/1606Z
TN17/1621Z

RKPK 15/09/2019 UTC

TAF RKPK 152300Z 1600/1706 03006KT 9999 SCT030 SCT200
TX28/1606Z TN19/1620Z
BECMG 1605/1606 03010KT
BECMG 1612/1613 03006KT

RKPC 15/09/2019 UTC

TAF RKPC 152300Z 1600/1706 08007KT 9999 FEW010 BKN030
TX26/1605Z TN22/1621Z TX25/1705Z
BECMG 1603/1604 02007KT
BECMG 1612/1613 09007KT
BECMG 1623/1624 07015G25KT

Indonesia, Pakistan, Singapore, India, Sri Lanka, United Arab Emirates

The availability of aerodrome forecasts from overseas locations is dependent on the regular international exchange of data. Some locations may at times be absent. If this problem persists, please advise webav@bom.gov.au

 back to top

WIII 15/09/2019 UTC

TAF WIII 152300Z 1600/1706 03012KT 9999 FEW020 BECMG 1612/1614
20005KT 5000 HZ

WSSS 15/09/2019 UTC

TAF WSSS 152300Z 1600/1706 14007KT 9999 FEW015 SCT020

VCBI 15/09/2019 UTC

TAF VCBI 152300Z 1600/1706 18007KT 9999 FEW014 SCT017 TX29/1608Z
TN24/1700Z PROB40
TEMPO 1600/1603 1606/1615 6000 -TSRA/SHRA FEW012 BKN016
FEW018CB

VECC 15/09/2019 UTC

TAF VECC 152300Z 1600/1706 17006KT 2500 -RA HZ SCT018 BKN100
BECMG 1603/1605 3500 -RA HZ
BECMG 1623/1701 2500 -RA HZ
BECMG 1703/1705 3500 HZ

VOMM 15/09/2019 UTC

TAF VOMM 152300Z 1600/1706 25010KT 6000 SCT020 BKN100
BECMG 1612/1613 18010KT TEMPO 1612/1618 4000 -TSRA/RA SCT020
FEW025CB BKN080 BECMG 1620/1621 25010KT

VOTV 15/09/2019 UTC

TAF VOTV 152300Z 1600/1706 02005KT 3000 BR SCT012 FEW025CB BKN080
TEMPO 1601/1603 2000 BR RA BECMG 1604/1606 33010KT 6000 SCT015
FEW025TCU TEMPO 1610/1614 2500 TSRA RA SCT010 FEW025CB BKN080 BECMG
1614/1616 03005KT 3000 BR DZ TEMPO 1622/1703 1500 TSRA RA SCT010
FEW025CB BKN080 BECMG 1704/1706 33010KT 6000 SCT015

VABB 15/09/2019 UTC

TAF VABB 152300Z 1600/1706 04005KT 2500 HZ SCT018 SCT025 BKN100
TEMPO 1600/1609 1500 SHRA SCT012 FEW030CB OVC080
BECMG 1605/1607 32010KT 3000 HZ
TEMPO 1612/1621 2000 -SHRA SCT012 FEW025TCU BKN090
BECMG 1622/1624 VRB03KT 2500 HZ
TEMPO 1700/1703 1500 SHRA SCT010 FEW025TCU OVC080

VAAH 15/09/2019 UTC

TAF VAAH 152300Z 1600/1706 26006KT 3000 BR SCT020 BKN080
BECMG 1601/1603 2000 BR SCT015 BKN080
BECMG 1605/1607 4000 HZ FEW020 SCT025
BECMG 1607/1609 5000 HZ SCT020 SCT080
BECMG 1612/1614 27005KT 4000 HZ
BECMG 1701/1703 2000 BR
BECMG 1704/1706 4000 HZ FEW020 SCT025

VILK 15/09/2019 UTC

TAF VILK 152300Z 1600/1706 VRB02KT 2500 BR SCT020 BKN090
TEMPO 1600/1604 FEW030CB OVC090
BECMG 1604/1606 09008KT 4000 HZ SCT020 BKN090
BECMG 1616/1618 VRB02KT 3000 BR SCT020 SCT100
BECMG 1704/1706 09006KT 4000 HZ SCT100 BKN100
TEMPO 1702/1706 FEW030CB OVC090

VANP 15/09/2019 UTC

TAF VANP 152300Z 1600/1706 25005KT 2500 -RA HZ FEW010 SCT020 BKN090
BECMG 1604/1606 27005KT 4000 -RA HZ SCT020 SCT025 BKN090
BECMG 1612/1614 25005KT 3000 -RA HZ SCT018 BKN080
BECMG 1704/1706 29005KT 5000 HZ SCT020 SCT025 BKN100
TEMPO 1600/1602 29008KT 1500 -TSRA SCT010 SCT018 FEW030CB BKN080

VRMM 15/09/2019 UTC

TAF VRMM 151700Z 1518/1624 15004KT 9999 FEW018 TEMPO 1518/1524 6000
-SHRA FEW017CB

VOHS 15/09/2019 UTC

TAF VOHS 152300Z 1600/1706 28010KT 6000 SCT015 BKN090 TEMPO
1600/1603 28008KT 4000 -DZ BR SCT010 SCT025 BKN080 BECMG 1603/1605
28010KT 6000 SCT015 SCT090 TEMPO 1607/1611 27008KT 5000 FEW010
SCT025 BKN080 TEMPO 1611/1620 24006KT 4000 BR -RA SCT010 SCT025
FEW030CB BKN080 TEMPO 1621/1703 25008KT 4000 BR DZ SCT008 SCT025
OVC080 BECMG 1704/1706 29010KT 6000 SCT015 SCT100

OPKC 15/09/2019 UTC

TAF OPKC 152200Z 1600/1706 25005G15KT 6000 BKN020 TEMPO 1600/1604
27008KT 4000 HZ BKN020 TEMPO
1623/1703 25008KT 4000 HZ BKN020

OBBI 15/09/2019 UTC

TAF OBBI 152300Z 1600/1706 VRB05KT CAVOK PROB30 TEMPO 1600/1604 5000
HZ NSC PROB30 TEMPO 1700/1704 5000 HZ NSC

OMAA 16/09/2019 UTC

TAF OMAA 152300Z 1600/1706 06007KT 8000 NSC
BECMG 1601/1603 15011KT
PROB30 TEMPO 1602/1606 16016KT 4000 DU
BECMG 1609/1611 32011KT
BECMG 1619/1621 04006KT
BECMG 1700/1702 16010KT

OMDB 16/09/2019 UTC

TAF OMDB 152254Z 1600/1706 11005KT 8000 NSC
PROB30 1601/1605 3000 BR BKN010
BECMG 1601/1603 17010KT
BECMG 1608/1610 33012KT
BECMG 1619/1621 12005KT
BECMG 1702/1704 18012KT

OOMS 15/09/2019 UTC

TAF OOMS 152300Z 1600/1706 27006KT 8000 NSC PROB30 TEMPO 1600/1604
4000 BR BKN010 BECMG 1606/1608 03012KT BECMG 1617/1619
VRB02KT PROB30 TEMPO 1622/1703 4000 BR SCT010

OMSJ 15/09/2019 UTC

TAF OMSJ 152254Z 1600/1706 11005KT 8000 NSC
PROB30 1600/1605 3000 BR BKN010
BECMG 1601/1603 17010KT
BECMG 1608/1610 34012KT
BECMG 1617/1619 12005KT
BECMG 1702/1704 18012KT

Malawi, Mauritius, South Africa, Zambia, Zimbabwe

The availability of aerodrome forecasts from overseas locations is dependent on the regular international exchange of data. Some locations may at times be absent. If this problem persists, please advise webav@bom.gov.au

 back to top

FIMP 15/09/2019 UTC

TAF FIMP 152330Z 1600/1706 33005KT 9999 SCT017 BECMG 1604/1606
09008K

FMEE 15/09/2019 UTC

TAF FMEE 152300Z 1600/1706 18006KT 9999 FEW030 SCT050 BECMG 1604/1606
07010KT TEMPO 1610/1614 24008KT BECMG 1615/1617 18008KT BECMG
1704/1706 03006KT

FLKK 15/09/2019 UTC

TAF FLKK 150400Z 1506/1612 08010KT 8000 HZ SKC
BECMG 1512/1514 12005KT
FM151900 VRB03KT CAVOK
BECMG 1604/1606 07005KT 7000 HZ SKC

FWKI 15/09/2019 UTC

TAF FWKI 151535Z 1518/1624 10012KT CAVOK BECMG 1608/1610 12010G20KT
9999 SCT025

FAOR 15/09/2019 UTC

TAF FAOR 152200Z 1600/1706 VRB03KT CAVOK
TX27/1613Z TN13/1604Z
BECMG 1606/1608 29008KT
BECMG 1615/1617 VRB03KT
BECMG 1617/1619 33008KT

FVHA

TAF not available.

FAWK 16/09/2019 UTC

TAF FAWK 160000Z 1601/1612 NIL

FABL 15/09/2019 UTC

TAF FABL 152200Z 1600/1624 VRB03KT CAVOK TX31/1612Z TN08/1604Z
BECMG 1607/1609 35010KT

FALE 15/09/2019 UTC

TAF FALE 152200Z 1600/1706 34005KT 9999 SCT025
TX26/1612Z TN14/1604Z FM160600 02008KT CAVOK
BECMG 1608/1610 05016G26KT
BECMG 1618/1620 01008KT

YPCC 15/09/2019 UTC

TAF YPCC 152312Z 1600/1624
12020KT 9999 SCT030
FM161200 11014KT 9999 SCT025
RMK
T 25 27 27 27 Q 1014 1016 1014 1013

United States (includes Hawaii) and Mexican emergency/alternates

The availability of aerodrome forecasts from overseas locations is dependent on the regular international exchange of data. Some locations may at times be absent. If this problem persists, please advise webav@bom.gov.au

 back to top

PHNL 15/09/2019 UTC

TAF PHNL 152344Z 1600/1706 05010G16KT P6SM FEW025 SCT045 SCT060
FM160600 08010G16KT P6SM VCSH SCT025 SCT045 SCT060
FM161200 08008KT P6SM FEW025 SCT045
FM170000 10012G18KT P6SM FEW025 SCT045 SCT060

PHLI 15/09/2019 UTC

TAF PHLI 152344Z 1600/1624 10009KT P6SM VCSH FEW025 SCT045
FM161000 07012KT P6SM FEW025

PHOG 15/09/2019 UTC

TAF PHOG 152344Z 1600/1624 05014G22KT P6SM VCSH FEW030 SCT050 BKN080
FM160600 08008KT P6SM FEW030 SCT050
FM162200 06016G24KT P6SM FEW030 SCT050
AMD LTD TO VIS AND WIND 1609/1616

PHTO 15/09/2019 UTC

TAF PHTO 152344Z 1600/1624 12012KT P6SM VCSH FEW030 SCT050 SCT110
FM160400 VRB04KT P6SM VCSH SCT030 BKN050
FM161000 23006KT P6SM FEW030 SCT050 BKN110
FM162200 12014KT P6SM FEW030 SCT050 BKN110

PKMJ 15/09/2019 UTC

TAF PKMJ 152337Z 1600/1624 24008KT P6SM VCSH FEW015 SCT050 BKN120

KLAX 15/09/2019 UTC

TAF KLAX 152332Z 1600/1706 26010KT P6SM SCT009 BKN200
FM160500 25006KT 6SM BR OVC009
FM161700 25006KT P6SM FEW012 BKN200
FM162000 26012KT P6SM BKN200
FM170400 26006KT P6SM BKN200

KONT 15/09/2019 UTC

TAF KONT 152341Z 1600/1706 26011KT P6SM BKN200
FM160400 VRB04KT P6SM BKN150
FM162100 26012KT P6SM SCT150
FM170400 VRB04KT P6SM FEW150

KPMD 15/09/2019 UTC

TAF KPMD 152332Z 1600/1624 23017G25KT P6SM BKN200
FM160400 24012KT P6SM BKN200
FM160800 24007KT P6SM BKN200
FM161800 24015KT P6SM BKN200
FM162100 24022G32KT P6SM BKN200

KSAN 15/09/2019 UTC

TAF KSAN 152341Z 1600/1706 30009KT P6SM FEW005 BKN250
FM160200 VRB04KT P6SM FEW006 SCT200
FM160700 VRB04KT 4SM BR BKN007 BKN150
FM161400 VRB04KT 6SM HZ BKN009 BKN150
FM161600 VRB04KT P6SM SCT010 BKN150
FM162100 28010KT P6SM SCT150
FM170200 VRB04KT P6SM SCT010 SCT150

KLAS 15/09/2019 UTC

TAF KLAS 152320Z 1600/1706 16010G18KT P6SM BKN250
FM160300 20010G18KT P6SM BKN250
FM161800 19015G25KT P6SM BKN250
FM162100 22020G30KT P6SM SCT150 BKN200
FM170300 21012KT P6SM SCT150

KOAK 15/09/2019 UTC

TAF KOAK 152321Z 1600/1706 28017KT P6SM FEW015 BKN250
FM160300 26012KT P6SM SCT012 BKN040 OVC150
FM160500 23008KT P6SM BKN025 OVC040
FM161100 24010KT P6SM -RA BKN025 OVC040
FM161400 19010KT 5SM RA BR OVC025
FM161900 28015G25KT P6SM VCSH BKN030
FM162100 29015G25KT P6SM SCT040
FM170400 29015KT P6SM FEW040

KSFO 15/09/2019 UTC

TAF KSFO 152321Z 1600/1706 27017G24KT P6SM FEW015 BKN250
FM160300 28014KT P6SM SCT015 BKN030 OVC150
FM160600 26008KT P6SM BKN025 OVC045
FM161000 26010KT P6SM -RA BKN025 OVC045
FM161300 24008KT 6SM RA BR OVC025
FM161800 27014G24KT P6SM VCSH BKN030
FM162100 28017G27KT P6SM SCT040
FM170400 28012KT P6SM FEW040

KSMF 15/09/2019 UTC

TAF KSMF 152340Z 1600/1624 19016G22KT P6SM BKN250
FM160500 16013KT P6SM OVC200
FM161300 17011KT P6SM -SHRA OVC050
FM161800 18009KT P6SM OVC050

KSCK 15/09/2019 UTC

TAF KSCK 152340Z 1600/1624 27015G23KT P6SM FEW250
FM160400 26008KT P6SM SCT200
FM161300 21005KT P6SM BKN100 PROB30 1614/1619 4SM -SHRA OVC050
FM162000 25009G15KT P6SM BKN100

KFAT 15/09/2019 UTC

TAF KFAT 152320Z 1600/1624 VRB05KT P6SM SCT250
FM162100 31011G17KT P6SM VCSH SCT060 BKN120

KJFK 15/09/2019 UTC

TAF KJFK 152323Z 1600/1706 21006KT P6SM FEW050 SCT200
FM160300 26004KT P6SM BKN150
FM160800 27004KT P6SM BKN100
FM161000 30004KT P6SM BKN100
FM161200 36004KT P6SM BKN090
FM161400 05006KT P6SM BKN060
FM161900 10007KT P6SM BKN050
FM162100 15007KT P6SM BKN050
FM170200 04005KT P6SM BKN050

KPHL 15/09/2019 UTC

TAF KPHL 152320Z 1600/1706 32007KT P6SM FEW250
FM160300 VRB03KT P6SM SKC
FM161600 26007KT P6SM SCT150
FM161900 29007KT P6SM BKN070
FM170200 04005KT P6SM BKN050

KPIT 15/09/2019 UTC

TAF KPIT 152320Z 1600/1706 26003KT P6SM BKN200
FM161500 23005KT P6SM BKN050
FM162100 33005KT P6SM BKN070
FM170400 04003KT P6SM SCT025

KDEN 15/09/2019 UTC

TAF KDEN 152322Z 1600/1706 13016G24KT P6SM SCT140 BKN200
FM160300 16013KT P6SM SCT140 BKN200
FM160500 20010KT P6SM BKN180
FM161400 25006KT P6SM BKN160
FM161600 36007KT P6SM FEW100 BKN160
FM162100 04007KT P6SM SCT100 BKN160
FM170200 18008KT P6SM SCT100

KMCI 15/09/2019 UTC

TAF KMCI 152320Z 1600/1624 19005KT P6SM FEW150
FM161500 22008KT P6SM SKC

KDFW 15/09/2019 UTC

TAF KDFW 152320Z 1600/1706 11008KT P6SM FEW070

KAUS 15/09/2019 UTC

TAF KAUS 152330Z 1600/1706 11007KT P6SM SCT080 SCT250
FM160300 VRB04KT P6SM FEW060 SCT250
FM161700 07009KT P6SM SCT070 SCT250
FM170200 12007KT P6SM SCT070 SCT250

KELP 15/09/2019 UTC

TAF KELP 152340Z 1600/1624 02012KT P6SM VCSH FEW080 SCT110 BKN230
FM160500 14009KT P6SM BKN100 BKN250
FM161300 10005KT P6SM SCT120 BKN250

KIAH 15/09/2019 UTC

TAF KIAH 152320Z 1600/1706 09008KT P6SM SCT060
FM160300 VRB03KT P6SM SCT250
FM161500 07009KT P6SM SCT030
FM161800 09012KT P6SM VCSH SCT050 SCT150
FM170100 09009KT P6SM VCSH SCT040 SCT120

KSAT 15/09/2019 UTC

TAF KSAT 152330Z 1600/1706 12010KT P6SM SCT080 SCT250
FM160500 VRB04KT P6SM FEW060 SCT250
FM161700 08009KT P6SM SCT070 SCT250
FM170200 12007KT P6SM SCT070 SCT250

KTUS 15/09/2019 UTC

TAF KTUS 152330Z 1600/1624 35006KT P6SM FEW080
FM160300 14007KT P6SM FEW250
FM162000 03005KT P6SM SCT090 BKN250

MMCU 15/09/2019 UTC

TAF MMCU 151619Z 1518/1618 14006KT P6SM SCT030 BKN080
FM152100 14015KT P6SM SCT030CB BKN080
TEMPO 1522/1602 5SM TSRA BKN030CB
FM160300 34005KT P6SM SCT030 BKN080
PROB40 1603/1607 6SM -RA
FM160800 00000KT P6SM SCT030 BKN080

MMHO 15/09/2019 UTC

TAF MMHO 151644Z 1518/1618 23005KT P6SM SKC
BECMG 1520/1521 25012KT SCT030
FM160100 25005KT P6SM SCT030CB SCT080
TEMPO 1601/1605 VC TS
FM160600 00000KT P6SM SCT080
BECMG 1616/1617 23005KT

MMLT 15/09/2019 UTC

TAF MMLT 151623Z 1518/1618 15010KT P6SM SCT100
TEMPO 1521/1601 SCT030CB
FM160400 20005KT P6SM SKC
FM161600 06008KT P6SM SCT080

MMSD 15/09/2019 UTC

TAF MMSD 151623Z 1518/1618 14010KT P6SM BKN030
TEMPO 1521/1601 P6SM VC RA BKN030CB
FM160400 32005KT P6SM BKN030 BKN120
FM161700 13010KT P6SM BKN030

Papua New Guinea, Southwest Pacific

The availability of aerodrome forecasts from overseas locations is dependent on the regular international exchange of data. Some locations may at times be absent. If this problem persists, please advise webav@bom.gov.au

 back to top

NWWW 15/09/2019 UTC

TAF NWWW 152300Z 1600/1624 15012KT 9999 FEW040 SCT050 PROB30 TEMPO
1600/1605 15015G25KT SHRA BECMG 1606/1609 VRB02KT BECMG 1622/1624
20008KT

NFFN 15/09/2019 UTC

TAF NFFN 152310Z 1600/1624
13012KT 9999 BKN022 BKN040

NFNA 15/09/2019 UTC

TAF NFNA 152313Z 1600/1624
17010KT 9999 -SHRA FEW008 BKN017
PROB40 TEMPO 1600/1604 5000 SHRA BKN015

NFTF 15/09/2019 UTC

TAF NFTF 152314Z 1600/1624
26007KT 9999 -SHRA FEW006 SCT016 BKN100
TEMPO 1600/1612 5000 SHRA SCT008 BKN015
BECMG 1603/1605 18010KT

NSTU 15/09/2019 UTC

TAF NSTU 152344Z 1600/1624 09015KT P6SM FEW020 SCT040 SCT220
FM160900 11008KT P6SM FEW020 SCT040

NVVV 15/09/2019 UTC

TAF NVVV 152220Z 1600/1624 13015KT 9999 SCT025

NCRG 15/09/2019 UTC

TAF NCRG 152317Z 1600/1624
09013KT 9999 SCT030 SCT048

NTAA 15/09/2019 UTC

TAF NTAA 152300Z 1600/1706 VRB02KT 9999 FEW023 SCT060 PROB30 TEMPO
1600/1603 20012KT TEMPO 1620/1622 05012KT

NTTG

TAF not available.

NTTO

TAF not available.

NSFA 15/09/2019 UTC

TAF NSFA 152317Z 1600/1624
04014KT 9999 SCT022 BKN040
PROB30 TEMPO 1600/1608 5000 TSRA BKN015 FEW018CB

ANYN 15/09/2019 UTC

TAF ANYN 150215Z 1506/1606 09010KT 9999 SCT020
T 30 29 28 28
Q 1009 1011 1011 1009

AGGH 15/09/2019 UTC

TAF AGGH 152310Z 1600/1624 07012KT 9999 SCT018

T 31 32 31 28 Q 1014 1012 1011 1013

AGGM 15/09/2019 UTC

TAF AGGM 152310Z 1600/1624 14015KT 9999 -SHRA SCT018

Q 1014 1012 1011 1013

AGGN 15/09/2019 UTC

TAF AGGN 152310Z 1600/1624 14015KT 9999 -SHRA SCT018

Q 1014 1012 1011 1013

AYPY 16/09/2019 UTC

TAF AYPY 152207Z 1600/1624 13015G26KT 9999 SCT018

AYNZ

TAF not available.

AYMD

TAF not available.

AYMH

TAF not available.

AYTA

TAF not available.

PKMJ 15/09/2019 UTC

TAF PKMJ 152337Z 1600/1624 24008KT P6SM VCSH FEW015 SCT050 BKN120

NGTA 15/09/2019 UTC

TAF NGTA 152322Z 1600/1624
14006KT 9999 FEW030

PTRO 15/09/2019 UTC

TAF PTRO 152337Z 1600/1624 22014KT P6SM SCT016 BKN120

YLHI 15/09/2019 UTC

TAF AMD YLHI 152300Z 1600/1624
30007KT 9999 SCT030
BECMG 1600/1602 33015KT 9999 SCT030
RMK FM161200 MOD TURB BLW 5000FT
T 19 19 18 18 Q 1022 1020 1019 1020

YSNF 15/09/2019 UTC

TAF YSNF 152304Z 1600/1624
17005KT 9999 BKN030
FM160300 10005KT 9999 SCT025
FM161500 36005KT 9999 BKN030
RMK
T 18 18 16 16 Q 1023 1022 1022 1024

Indonesia, Timor Leste, Papua New Guinea

The availability of aerodrome forecasts from overseas locations is dependent on the regular international exchange of data. Some locations may at times be absent. If this problem persists, please advise webav@bom.gov.au

 back to top

WAAA 15/09/2019 UTC

TAF WAAA 152300Z 1600/1706 09010KT 9999 FEW019
BECMG 1604/1606 29012KT
BECMG 1610/1612 11008KT 8000

WAMM 15/09/2019 UTC

TAF WAMM 152300Z 1600/1706 15008G18KT 9999 FEW023
BECMG 1610/1612 13004KT

WAMP

TAF not available.

WAJJ 16/09/2019 UTC

TAF COR WAJJ 152300Z 1600/1624 14006KT 9999 FEW013
TEMPO 1603/1607 22003KT
BECMG 1610/1612 00000KT

WAPP 15/09/2019 UTC

TAF WAPP 152300Z 1600/1624 35005KT 9000 BKN018
BECMG 1603/1605 14008KT

WABB 15/09/2019 UTC

TAF WABB 152300Z 1600/1706 13008KT 9999 SCT018
TEMPO 1606/1609 7000 RA
BECMG 1610/1612 00000KT

WPDL 15/09/2019 UTC

TAF WPDL 152310Z 1600/1612
04012KT CAVOK
RMK
T 27 29 29 27 Q 1015 1015 1013 1013

WATT 15/09/2019 UTC

TAF WATT 152300Z 1600/1624 08011KT 9999 SCT018
TEMPO 1603/1607 31015KT
BECMG 1615/1617 10005KT

WIII 15/09/2019 UTC

TAF WIII 152300Z 1600/1706 03012KT 9999 FEW020 BECMG 1612/1614
20005KT 5000 HZ

WIHH 15/09/2019 UTC

TAF WIHH 152300Z 1600/1700 14006KT 7000 SCT020
BECMG 1605/1607 03012KT

WIMM 15/09/2019 UTC

TAF WIMM 152300Z 1600/1700 22005KT 5000 HZ SCT018
BECMG 1602/1604 03010KT 9000 NSW
BECMG 1610/1612 VRB05KT 5000 HZ

WARR 15/09/2019 UTC

TAF WARR 152300Z 1600/1700 10012KT 9999 FEW020
BECMG 1616/1618 24005KT 5000 HZ

WADD 15/09/2019 UTC

TAF WADD 152300Z 1600/1700 12010KT 9999 SCT016
TEMPO 1620/1700 BKN016

AYPY 16/09/2019 UTC

TAF AYPY 152207Z 1600/1624 13015G26KT 9999 SCT018

AYNZ

TAF not available.

AYMH

TAF not available.

AYMD

TAF not available.

AYHK

TAF not available.

AYTK

TAF not available.

AYVN

TAF not available.

AYWK

TAF not available.

AYGA

TAF not available.

AYDU

TAF not available.

AYMS

TAF not available.

AYRB

TAF not available.

AYTB

TAF not available.

AYKI

TAF not available.

AYKT

TAF not available.

AYBK

TAF not available.

AYKM

TAF not available.

AYKY

TAF not available.

AYMO

TAF not available.

AYKV

TAF not available.

Accessing this Service

By entering this site, you acknowledge that this information is produced solely for use by the aviation industry, and you are aware that any information for the purposes of flight planning should be obtained from Airservices Australia.